Flight Track Log - Related Links

Times and Time Zones

All times are in EDT time to prevent confusion due to time zone crossing. See the ASQ4209 flight status page for this flight to view local times or setup timezone preferences in your user account.

Time Position Orientation Groundspeed Altitude Reporting Facility
EDT Latitude Longitude Course Direction KTS MPH feet Rate Location/Type
Sun 01:05:57 PM 29.9661 -95.3456 90° East 159 183 800  Level Houston Center
Sun 01:06:52 PM 29.9308 -95.3039 134° Southeast 216 249 2,500 1,385 Climbing Houston Center
Sun 01:07:15 PM 29.9250 -95.2944 125° Southeast 203 234 2,600 2,613 Climbing Houston Center
Sun 01:07:54 PM 29.8950 -95.2358 121° Southeast 255 293 5,200 3,581 Climbing Houston Center
Sun 01:08:00 PM 29.9833 -94.9973 90° East  Level FlightAware Approximate
Sun 01:08:17 PM 29.8914 -95.2067 98° East 243 280 6,300  Level Houston Center
Sun 01:08:55 PM 29.8878 -95.1572 95° East 260 299 7,900 2,226 Climbing Houston Center
Sun 01:09:00 PM 29.9834 -94.8853 90° East  Level FlightAware Approximate
Sun 01:09:19 PM 29.8914 -95.1250 83° East 259 298 8,600  Level Houston Center
Sun 01:09:56 PM 29.8981 -95.0644 83° East 285 328 10,100 1,742 Climbing Houston Center
Sun 01:10:00 PM 29.9834 -94.7733 90° East  Level FlightAware Approximate
Sun 01:10:21 PM 29.9022 -95.0344 81° East 278 320 10,400  Level Houston Center
Sun 01:11:00 PM 29.9833 -94.6613 90° East  Level FlightAware Approximate
Sun 01:11:23 PM 29.9156 -94.9286 82° East 328 377 11,500  Level Houston Center
Sun 01:12:25 PM 29.9308 -94.8175 81° East 346 398 13,000 1,452 Climbing Houston Center
Sun 01:13:27 PM 29.9444 -94.7050 82° East 355 409 14,500 1,452 Climbing Houston Center
Sun 01:14:29 PM 29.9594 -94.5903 81° East 360 414 16,000 1,452 Climbing Houston Center
Sun 01:15:31 PM 29.9747 -94.4717 82° East 362 417 17,500 1,548 Climbing Houston Center
Sun 01:16:33 PM 29.9925 -94.3314 82° East 369 425 19,200 1,548 Climbing Houston Center
Sun 01:17:35 PM 30.0081 -94.2133 81° East 374 430 20,700 1,452 Climbing Houston Center
Sun 01:18:37 PM 30.0222 -94.0925 82° East 382 440 22,200 1,113 Climbing Houston Center
Sun 01:19:39 PM 30.0381 -93.9708 81° East 385 443 23,000 387 Climbing Houston Center
Sun 01:20:41 PM 30.0536 -93.8392 82° East 417 480 23,000  Level Houston Center
Sun 01:21:43 PM 30.0728 -93.6769 82° East 429 494 23,000  Level Houston Center
Sun 01:22:45 PM 30.0892 -93.5389 82° East 436 502 23,000  Level Houston Center
Sun 01:23:47 PM 30.1064 -93.3967 82° East 452 520 23,000  Level Houston Center
Sun 01:24:49 PM 30.1228 -93.2539 82° East 454 522 23,000  Level Houston Center
Sun 01:25:51 PM 30.1464 -93.0789 81° East 462 532 23,000 -48 Level Houston Center
Sun 01:26:53 PM 30.1744 -92.9333 77° East 467 537 22,900 -290 Descending Houston Center
Sun 01:27:55 PM 30.2022 -92.7894 77° East 463 533 22,400 -532 Descending Houston Center
Sun 01:28:57 PM 30.2297 -92.6467 77° East 459 528 21,800 -672 Descending Houston Center
Sun 01:30:00 PM 30.2575 -92.5064 77° East 452 520 21,000 -672 Descending Houston Center
Sun 01:31:02 PM 30.2853 -92.3639 77° East 454 522 20,400 -581 Descending Houston Center
Sun 01:32:04 PM 30.3150 -92.2072 78° East 447 514 19,800 -581 Descending Houston Center
Sun 01:33:06 PM 30.3411 -92.0703 78° East 439 505 19,200 -823 Descending Houston Center
Sun 01:34:08 PM 30.3664 -91.9361 78° East 431 496 18,100 -1,694 Descending Houston Center
Sun 01:35:10 PM 30.3961 -91.7786 78° East 421 484 15,700 -2,081 Descending Houston Center
Sun 01:36:12 PM 30.4139 -91.6631 80° East 403 464 13,800 -1,984 Descending Houston Center
Sun 01:37:14 PM 30.3989 -91.5497 99° East 355 409 11,600 -2,177 Descending Houston Center
Sun 01:38:16 PM 30.3911 -91.4533 95° East 307 353 9,300 -2,419 Descending Houston Center
Sun 01:39:18 PM 30.3806 -91.3483 97° East 274 315 6,600 -2,177 Descending Houston Center
Sun 01:40:20 PM 30.3803 -91.2644 90° East 262 302 4,800 -1,548 Descending Houston Center
Sun 01:41:22 PM 30.4086 -91.1814 68° East 261 300 3,400 -1,355 Descending Houston Center

Login

Don't have an account? Register now (free) for customized features, flight alerts, and more!